Time;durP1;ratioP1;P1;durP2;ratioP2;P2;SDS_P1;SDS_P2;PMS_P1;PMS_P2;Temp;Humidity;BMP_temperature;BMP_pressure;BME280_temperature;BME280_humidity;BME280_pressure;Samples;Min_cycle;Max_cycle;Signal;HPM_P1;HPM_P2
2022/08/25 00:01:48;;;;;;;5.10;4.07;;;20.30;99.90;;;;;;5094201;28;20032;-68
2022/08/25 00:04:16;;;;;;;7.15;4.35;;;20.20;99.90;;;;;;5093134;28;20142;-69
2022/08/25 00:06:43;;;;;;;9.30;5.00;;;20.20;99.90;;;;;;5094409;28;20137;-68
2022/08/25 00:09:10;;;;;;;6.75;4.35;;;20.10;99.90;;;;;;5094291;28;20035;-69
2022/08/25 00:11:38;;;;;;;6.22;4.40;;;20.10;99.90;;;;;;5094202;28;20399;-69
2022/08/25 00:14:12;;;;;;;6.40;4.15;;;20.10;99.90;;;;;;5093762;28;20126;-69
2022/08/25 00:16:38;;;;;;;8.05;4.53;;;20.00;99.90;;;;;;5093857;28;20032;-68
2022/08/25 00:19:14;;;;;;;4.65;4.03;;;20.00;20.20;;;;;;5094146;28;20040;-68
2022/08/25 00:21:41;;;;;;;7.32;4.00;;;20.00;1.00;;;;;;5094094;28;20036;-69
2022/08/25 00:24:09;;;;;;;4.80;3.50;;;20.00;99.90;;;;;;5094069;28;20055;-69
2022/08/25 00:26:38;;;;;;;5.00;3.80;;;20.00;1.00;;;;;;5093914;28;20407;-68
2022/08/25 00:29:04;;;;;;;4.65;3.53;;;19.90;99.90;;;;;;5093978;28;20395;-68
2022/08/25 00:31:30;;;;;;;5.60;3.63;;;19.90;99.90;;;;;;5093613;28;20040;-68
2022/08/25 00:33:56;;;;;;;6.07;4.00;;;19.90;1.00;;;;;;5093500;28;20047;-68
2022/08/25 00:36:21;;;;;;;6.63;3.72;;;19.90;1.00;;;;;;5093592;28;20135;-68
2022/08/25 00:38:48;;;;;;;4.95;3.78;;;19.80;99.90;;;;;;5092555;28;20047;-68
2022/08/25 00:41:19;;;;;;;5.75;4.10;;;19.80;99.90;;;;;;5093677;28;20039;-68
2022/08/25 00:43:50;;;;;;;6.60;3.78;;;19.80;99.90;;;;;;5092475;28;20046;-68
2022/08/25 00:46:27;;;;;;;4.40;3.20;;;19.80;99.90;;;;;;5093636;28;20038;-69
2022/08/25 00:48:58;;;;;;;5.38;3.15;;;19.80;95.20;;;;;;5093632;28;20407;-68
2022/08/25 00:51:35;;;;;;;5.05;3.15;;;19.80;1.00;;;;;;5093618;28;20471;-69
2022/08/25 00:54:03;;;;;;;4.47;3.65;;;19.80;44.80;;;;;;5093481;28;20076;-69
2022/08/25 00:56:30;;;;;;;4.57;3.28;;;19.80;99.90;;;;;;5093538;28;20039;-69
2022/08/25 00:58:58;;;;;;;3.97;3.33;;;19.80;99.90;;;;;;5093480;28;20043;-68
2022/08/25 01:01:25;;;;;;;5.80;3.15;;;19.90;99.90;;;;;;5092980;28;20075;-69
2022/08/25 01:03:51;;;;;;;3.20;2.88;;;19.90;1.00;;;;;;5093031;28;20115;-68
2022/08/25 01:06:16;;;;;;;3.53;2.47;;;19.90;99.90;;;;;;5093367;28;20132;-68
2022/08/25 01:08:42;;;;;;;6.55;2.85;;;19.90;99.90;;;;;;5093042;28;20063;-68
2022/08/25 01:11:09;;;;;;;4.03;2.70;;;19.90;1.00;;;;;;5093301;28;20047;-68
2022/08/25 01:13:40;;;;;;;3.88;2.65;;;19.90;1.00;;;;;;5092852;28;20052;-69
2022/08/25 01:16:06;;;;;;;4.15;2.72;;;19.90;99.90;;;;;;5093221;28;20044;-69
2022/08/25 01:18:44;;;;;;;3.63;2.67;;;19.90;99.90;;;;;;5091662;28;20509;-69
2022/08/25 01:21:10;;;;;;;4.03;2.60;;;19.90;99.90;;;;;;5093190;28;20501;-69
2022/08/25 01:23:36;;;;;;;3.78;2.65;;;19.90;99.90;;;;;;5091765;28;20123;-69
2022/08/25 01:26:12;;;;;;;3.83;2.78;;;19.80;99.90;;;;;;5093171;28;20115;-69
2022/08/25 01:29:19;;;;;;;2.85;2.47;;;19.80;99.90;;;;;;5092775;28;20083;-69
2022/08/25 01:31:26;;;;;;;3.92;2.63;;;19.80;99.90;;;;;;5091809;28;20407;-68
2022/08/25 01:33:52;;;;;;;3.90;2.80;;;19.70;99.90;;;;;;5092738;28;20058;-68
2022/08/25 01:36:19;;;;;;;4.32;2.58;;;19.70;99.90;;;;;;5093104;28;20044;-70
2022/08/25 01:38:45;;;;;;;5.75;2.80;;;19.70;99.90;;;;;;5091893;28;20036;-69
2022/08/25 01:41:10;;;;;;;5.47;2.40;;;19.60;99.90;;;;;;5092992;28;20472;-68
2022/08/25 01:43:37;;;;;;;3.78;2.30;;;19.70;99.90;;;;;;5091450;28;20190;-69
2022/08/25 01:46:03;;;;;;;3.60;2.55;;;19.60;99.90;;;;;;5092967;28;20399;-69
2022/08/25 01:48:31;;;;;;;3.55;2.40;;;19.60;99.90;;;;;;5092921;28;20043;-69
2022/08/25 01:50:57;;;;;;;2.80;2.55;;;19.60;54.10;;;;;;5092921;28;20052;-69
2022/08/25 01:53:27;;;;;;;3.78;2.60;;;19.50;96.00;;;;;;5092830;28;20445;-69
2022/08/25 01:56:01;;;;;;;;;;;19.60;99.90;;;;;;5093091;28;20065;-69
2022/08/25 01:58:47;;;;;;;3.45;2.47;;;19.50;40.70;;;;;;5092901;28;19916;-69
2022/08/25 02:01:17;;;;;;;3.35;2.60;;;19.40;91.20;;;;;;5092820;28;20044;-69
2022/08/25 02:03:45;;;;;;;3.50;2.70;;;19.40;87.60;;;;;;5091504;28;20491;-69
2022/08/25 02:06:17;;;;;;;5.53;2.70;;;19.40;47.70;;;;;;5092686;28;20039;-69
2022/08/25 02:08:42;;;;;;;4.13;2.97;;;19.40;65.80;;;;;;5092818;28;20039;-69
2022/08/25 02:11:11;;;;;;;3.78;2.78;;;19.30;99.90;;;;;;5092722;28;20036;-68
2022/08/25 02:13:39;;;;;;;5.05;3.35;;;19.20;63.80;;;;;;5095566;28;20055;-69
2022/08/25 02:16:05;;;;;;;3.42;2.72;;;19.30;1.00;;;;;;5096563;28;20032;-68
2022/08/25 02:18:31;;;;;;;4.25;2.85;;;19.20;1.00;;;;;;5095199;28;20044;-69
2022/08/25 02:20:56;;;;;;;3.78;2.60;;;19.20;1.00;;;;;;5096451;28;20040;-68
2022/08/25 02:23:22;;;;;;;4.03;2.40;;;19.20;1.00;;;;;;5095272;28;20123;-70
2022/08/25 02:25:48;;;;;;;5.47;2.78;;;19.20;99.90;;;;;;5096308;28;20479;-68
2022/08/25 02:28:14;;;;;;;3.38;2.88;;;19.20;99.90;;;;;;5096323;28;20040;-69
2022/08/25 02:30:41;;;;;;;4.75;2.83;;;19.20;99.90;;;;;;5096077;28;20494;-68
2022/08/25 02:33:08;;;;;;;3.72;2.13;;;19.20;99.90;;;;;;5095813;28;20044;-69
2022/08/25 02:35:34;;;;;;;5.47;2.85;;;19.20;99.90;;;;;;5096232;28;20111;-69
2022/08/25 02:38:00;;;;;;;5.35;2.45;;;19.20;99.90;;;;;;5095887;28;20035;-69
2022/08/25 02:40:26;;;;;;;4.18;2.50;;;19.20;99.90;;;;;;5096096;28;20036;-68
2022/08/25 02:42:54;;;;;;;3.75;2.47;;;19.20;99.90;;;;;;5096003;28;20040;-68
2022/08/25 02:45:20;;;;;;;3.40;2.13;;;19.20;99.90;;;;;;5095674;28;20044;-69
2022/08/25 02:47:45;;;;;;;3.70;2.25;;;19.20;99.90;;;;;;5095921;28;20081;-68
2022/08/25 02:50:11;;;;;;;4.80;2.60;;;19.10;99.90;;;;;;5095928;28;20039;-68
2022/08/25 02:52:38;;;;;;;3.22;2.03;;;19.10;99.90;;;;;;5095886;28;20036;-68
2022/08/25 02:55:08;;;;;;;3.13;2.13;;;19.10;99.90;;;;;;5095654;28;20036;-69
2022/08/25 02:57:34;;;;;;;3.60;2.40;;;19.10;99.90;;;;;;5095444;28;20036;-69
2022/08/25 03:00:00;;;;;;;2.65;2.00;;;19.10;99.90;;;;;;5095721;28;20042;-69
2022/08/25 03:02:26;;;;;;;4.10;2.03;;;19.10;99.90;;;;;;5095348;28;20036;-69
2022/08/25 03:04:53;;;;;;;2.75;1.80;;;19.00;99.90;;;;;;5095656;28;20513;-68
2022/08/25 03:07:20;;;;;;;4.70;2.25;;;19.00;99.90;;;;;;5095173;28;20097;-69
2022/08/25 03:09:46;;;;;;;2.35;1.85;;;19.00;99.90;;;;;;5095530;28;20043;-68
2022/08/25 03:12:12;;;;;;;2.80;2.10;;;19.00;99.90;;;;;;5095211;28;20048;-68
2022/08/25 03:14:39;;;;;;;3.05;2.10;;;19.00;99.90;;;;;;5095323;28;20036;-69
2022/08/25 03:17:08;;;;;;;2.97;2.25;;;19.00;99.90;;;;;;5094190;28;20068;-68
2022/08/25 03:19:34;;;;;;;3.22;1.95;;;19.00;99.90;;;;;;5095284;28;20067;-69
2022/08/25 03:22:00;;;;;;;2.80;2.10;;;18.90;99.90;;;;;;5095292;28;20494;-68
2022/08/25 03:24:26;;;;;;;2.78;2.17;;;18.90;99.90;;;;;;5094754;28;20079;-69
2022/08/25 03:26:52;;;;;;;4.88;2.08;;;18.90;99.90;;;;;;5094946;28;20186;-69
2022/08/25 03:29:30;;;;;;;1.98;1.67;;;18.90;99.90;;;;;;5095127;28;20032;-68
2022/08/25 03:31:59;;;;;;;2.35;1.88;;;18.90;99.90;;;;;;5095101;28;20040;-69
2022/08/25 03:34:28;;;;;;;6.03;2.28;;;18.90;99.90;;;;;;5094694;28;20040;-69
2022/08/25 03:36:55;;;;;;;3.97;1.92;;;18.90;99.90;;;;;;5094708;28;20036;-68
2022/08/25 03:39:23;;;;;;;3.40;2.17;;;18.90;99.90;;;;;;5094609;28;20040;-68
2022/08/25 03:41:50;;;;;;;3.13;2.20;;;18.80;99.90;;;;;;5094886;28;20067;-69
2022/08/25 03:44:17;;;;;;;3.10;2.05;;;18.80;99.90;;;;;;5094872;28;20051;-68
2022/08/25 03:46:48;;;;;;;2.95;2.22;;;18.70;99.90;;;;;;5094818;28;20071;-68
2022/08/25 03:49:21;;;;;;;2.60;2.08;;;18.70;99.90;;;;;;5094743;28;20032;-69
2022/08/25 03:51:49;;;;;;;4.63;2.25;;;18.60;99.90;;;;;;5094704;28;20048;-68
2022/08/25 03:54:17;;;;;;;2.97;1.88;;;18.70;99.90;;;;;;5094614;28;20392;-68
2022/08/25 03:56:44;;;;;;;4.28;2.40;;;18.60;99.90;;;;;;5094594;28;20089;-68
2022/08/25 03:59:10;;;;;;;3.58;2.42;;;18.60;99.90;;;;;;5094539;28;20119;-68
2022/08/25 04:01:41;;;;;;;6.22;2.08;;;18.60;99.90;;;;;;5094578;28;20103;-69
2022/08/25 04:04:09;;;;;;;3.03;2.00;;;18.60;99.90;;;;;;5094391;28;20421;-69
2022/08/25 04:06:36;;;;;;;4.38;2.20;;;18.60;99.90;;;;;;5092925;28;20127;-68
2022/08/25 04:09:02;;;;;;;4.07;2.45;;;18.50;99.90;;;;;;5094388;28;20039;-69
2022/08/25 04:11:28;;;;;;;4.85;2.53;;;18.50;99.90;;;;;;5094250;28;20506;-68
2022/08/25 04:13:57;;;;;;;2.72;2.25;;;18.50;99.90;;;;;;5093656;28;20048;-68
2022/08/25 04:16:25;;;;;;;4.65;2.80;;;18.50;99.90;;;;;;5094173;28;20078;-69
2022/08/25 04:18:52;;;;;;;3.95;2.30;;;18.50;99.90;;;;;;5092897;28;20040;-68
2022/08/25 04:21:19;;;;;;;3.67;2.55;;;18.50;99.90;;;;;;5094220;28;20060;-68
2022/08/25 04:23:47;;;;;;;6.43;2.65;;;18.50;99.90;;;;;;5092667;28;20044;-69
2022/08/25 04:26:23;;;;;;;5.40;2.28;;;18.40;99.90;;;;;;5092586;28;20058;-69
2022/08/25 04:28:49;;;;;;;4.40;2.00;;;18.40;99.90;;;;;;5093656;28;20048;-69
2022/08/25 04:31:16;;;;;;;4.38;1.95;;;18.40;99.90;;;;;;5093965;28;20039;-68
2022/08/25 04:33:44;;;;;;;4.32;2.25;;;18.40;99.90;;;;;;5093641;28;20465;-68
2022/08/25 04:36:13;;;;;;;4.03;2.30;;;18.30;99.90;;;;;;5092732;28;20047;-68
2022/08/25 04:38:40;;;;;;;4.68;2.22;;;18.30;99.90;;;;;;5093517;28;20028;-68
2022/08/25 04:41:07;;;;;;;4.68;2.33;;;18.30;99.90;;;;;;5093801;28;20036;-69
2022/08/25 04:43:34;;;;;;;3.05;2.08;;;18.30;99.90;;;;;;5093824;28;20042;-68
2022/08/25 04:46:06;;;;;;;3.70;2.25;;;18.30;99.90;;;;;;5093771;28;20496;-69
2022/08/25 04:48:33;;;;;;;3.67;2.10;;;18.30;99.90;;;;;;5093705;28;20078;-68
2022/08/25 04:51:04;;;;;;;4.75;2.15;;;18.30;99.90;;;;;;5093687;28;20459;-69
2022/08/25 04:53:31;;;;;;;6.80;2.35;;;18.30;99.90;;;;;;5093504;28;20044;-69
2022/08/25 04:55:57;;;;;;;4.55;1.92;;;18.30;99.90;;;;;;5093266;28;20048;-68
2022/08/25 04:58:23;;;;;;;4.93;2.38;;;18.30;99.90;;;;;;5093455;28;20038;-68
2022/08/25 05:00:48;;;;;;;4.82;2.60;;;18.20;99.90;;;;;;5093142;28;20118;-69
2022/08/25 05:03:14;;;;;;;3.47;2.17;;;18.20;99.90;;;;;;5091920;28;20530;-69
2022/08/25 05:05:40;;;;;;;3.42;2.53;;;18.20;99.90;;;;;;5093388;28;20047;-68
2022/08/25 05:08:06;;;;;;;3.78;2.33;;;18.30;99.90;;;;;;5092104;28;20036;-69
2022/08/25 05:10:32;;;;;;;3.97;2.47;;;18.20;99.90;;;;;;5074858;28;20040;-66
2022/08/25 05:12:58;;;;;;;2.80;2.20;;;18.20;99.90;;;;;;5092790;28;20048;-69
2022/08/25 05:18:10;;;;;;;4.40;2.33;;;18.20;99.90;;;;;;5093160;28;20040;-69
2022/08/25 05:20:36;;;;;;;3.42;2.20;;;18.30;99.90;;;;;;5093160;28;20085;-69
2022/08/25 05:23:03;;;;;;;3.10;2.13;;;18.30;99.90;;;;;;5091702;28;20428;-68
2022/08/25 05:25:28;;;;;;;3.97;2.65;;;18.30;99.90;;;;;;5091690;28;20050;-69
2022/08/25 05:27:54;;;;;;;4.68;2.80;;;18.30;99.90;;;;;;5093025;28;20401;-69
2022/08/25 05:30:20;;;;;;;7.32;2.67;;;18.30;1.00;;;;;;5093103;28;20044;-71
2022/08/25 05:32:46;;;;;;;4.10;2.25;;;18.40;1.00;;;;;;5091527;28;20469;-68
2022/08/25 05:35:11;;;;;;;4.53;2.47;;;18.40;1.00;;;;;;5092703;28;20097;-69
2022/08/25 05:37:37;;;;;;;3.63;2.55;;;18.40;1.00;;;;;;5092978;28;20054;-69
2022/08/25 05:40:05;;;;;;;4.07;2.60;;;18.50;1.00;;;;;;5091629;28;20592;-69
2022/08/25 05:42:31;;;;;;;4.55;2.80;;;18.50;1.00;;;;;;5092971;28;20084;-68
2022/08/25 05:44:57;;;;;;;9.10;3.15;;;18.70;1.00;;;;;;5092912;28;20453;-69
2022/08/25 05:47:23;;;;;;;4.32;2.75;;;18.60;1.00;;;;;;5096162;28;20042;-71
2022/08/25 05:49:48;;;;;;;4.88;2.55;;;18.60;1.00;;;;;;5097091;28;20032;-71
2022/08/25 05:52:14;;;;;;;3.53;2.45;;;18.70;1.00;;;;;;5096947;28;20054;-70
2022/08/25 05:54:40;;;;;;;4.97;2.85;;;18.80;1.00;;;;;;5096616;28;20036;-69
2022/08/25 05:57:06;;;;;;;3.85;2.72;;;18.80;1.00;;;;;;5096948;28;20115;-68
2022/08/25 05:59:32;;;;;;;4.72;2.83;;;18.90;1.00;;;;;;5096899;28;20040;-69
2022/08/25 06:04:42;;;;;;;4.10;2.75;;;19.00;99.90;;;;;;5096342;28;20040;-68
2022/08/25 06:07:08;;;;;;;3.88;2.70;;;19.20;99.90;;;;;;5096337;28;20039;-68
2022/08/25 06:09:37;;;;;;;8.45;3.92;;;19.20;99.90;;;;;;5096461;28;20032;-68
2022/08/25 06:12:03;;;;;;;15.15;5.85;;;19.30;99.90;;;;;;5096277;28;20040;-69
2022/08/25 06:14:29;;;;;;;4.25;2.90;;;19.40;99.90;;;;;;5128763;27;20138;-71
2022/08/25 06:16:55;;;;;;;5.63;3.17;;;19.50;99.90;;;;;;5096362;28;20410;-70
2022/08/25 06:19:22;;;;;;;6.28;3.25;;;19.60;99.90;;;;;;5096281;28;20040;-70
2022/08/25 06:21:48;;;;;;;5.40;2.95;;;19.70;99.90;;;;;;5096103;28;20052;-70
2022/08/25 06:24:14;;;;;;;4.65;2.58;;;19.70;99.90;;;;;;5096348;28;20043;-69
2022/08/25 06:26:39;;;;;;;7.13;3.30;;;19.90;99.90;;;;;;5096343;28;20081;-70
2022/08/25 06:29:05;;;;;;;4.32;3.05;;;20.00;99.90;;;;;;5094664;28;20456;-71
2022/08/25 06:31:31;;;;;;;3.67;2.83;;;20.10;99.90;;;;;;5096230;28;20137;-71
2022/08/25 06:33:57;;;;;;;2.92;2.42;;;20.20;99.90;;;;;;5096061;28;20459;-71
2022/08/25 06:36:23;;;;;;;6.07;3.13;;;20.40;99.90;;;;;;5077996;28;20044;-68
2022/08/25 06:38:48;;;;;;;5.55;3.00;;;20.50;99.90;;;;;;5096111;28;20032;-69
2022/08/25 06:41:15;;;;;;;4.82;2.75;;;20.70;99.90;;;;;;5095998;28;20032;-70
2022/08/25 06:43:42;;;;;;;4.35;2.78;;;20.80;99.90;;;;;;5095866;28;20043;-70
2022/08/25 06:46:13;;;;;;;4.38;2.42;;;20.90;94.80;;;;;;5095548;28;20100;-70
2022/08/25 06:48:39;;;;;;;5.50;2.58;;;21.00;28.60;;;;;;5095548;28;20076;-70
2022/08/25 06:51:09;;;;;;;7.00;3.30;;;21.10;16.20;;;;;;5095722;28;20448;-71
2022/08/25 06:53:35;;;;;;;;;;;21.50;99.90;;;;;;5096186;28;20403;-72
2022/08/25 06:56:02;;;;;;;2.97;2.25;;;21.80;99.90;;;;;;5094537;28;19916;-70
2022/08/25 06:58:28;;;;;;;4.47;3.03;;;21.60;99.90;;;;;;5094860;28;20036;-70
2022/08/25 07:00:54;;;;;;;4.25;2.85;;;21.60;99.90;;;;;;5095742;28;20039;-70
2022/08/25 07:03:20;;;;;;;4.60;2.72;;;21.60;1.00;;;;;;5095316;28;20039;-72
2022/08/25 07:05:53;;;;;;;4.80;2.92;;;21.70;1.00;;;;;;5095284;28;20042;-70
2022/08/25 07:08:20;;;;;;;3.75;2.58;;;21.90;1.00;;;;;;5094136;28;20453;-70
2022/08/25 07:10:46;;;;;;;4.35;2.75;;;21.90;1.00;;;;;;5094231;28;20067;-71
2022/08/25 07:13:12;;;;;;;3.00;2.08;;;22.00;1.00;;;;;;5094992;28;20052;-71
2022/08/25 07:15:39;;;;;;;3.88;2.80;;;22.20;1.00;;;;;;5095429;28;20052;-72
2022/08/25 07:18:05;;;;;;;5.60;2.92;;;22.20;99.90;;;;;;5095326;28;20036;-72
2022/08/25 07:20:32;;;;;;;5.38;3.15;;;22.40;99.90;;;;;;5094058;28;20046;-71
2022/08/25 07:22:58;;;;;;;3.95;2.83;;;22.60;99.20;;;;;;5093684;28;20040;-71
2022/08/25 07:25:24;;;;;;;7.20;2.90;;;22.70;99.90;;;;;;5093967;28;20066;-71
2022/08/25 07:27:49;;;;;;;5.78;2.92;;;22.70;99.90;;;;;;5095048;28;20429;-71
2022/08/25 07:30:16;;;;;;;4.50;2.45;;;22.90;99.90;;;;;;5094686;28;20036;-70
2022/08/25 07:32:42;;;;;;;4.72;3.10;;;22.90;99.90;;;;;;5095006;28;20032;-71
2022/08/25 07:35:14;;;;;;;4.93;2.75;;;23.00;99.90;;;;;;5076448;28;20071;-71
2022/08/25 07:37:44;;;;;;;3.78;2.70;;;23.10;99.90;;;;;;5094831;28;20071;-71
2022/08/25 07:40:20;;;;;;;5.30;2.65;;;23.20;99.90;;;;;;5094833;28;20036;-70
2022/08/25 07:42:48;;;;;;;6.65;2.33;;;23.30;99.90;;;;;;5094805;28;20068;-72
2022/08/25 07:45:15;;;;;;;3.75;2.60;;;23.50;99.90;;;;;;5094719;28;20047;-71
2022/08/25 07:47:41;;;;;;;4.13;2.53;;;23.60;99.90;;;;;;5094300;28;20036;-71
2022/08/25 07:50:10;;;;;;;3.83;2.40;;;23.80;99.90;;;;;;5093417;28;20062;-72
2022/08/25 07:52:37;;;;;;;7.07;2.72;;;23.80;99.90;;;;;;5094733;28;20036;-69
2022/08/25 07:55:03;;;;;;;3.33;2.40;;;23.90;99.90;;;;;;5094498;28;20109;-70
2022/08/25 07:57:29;;;;;;;4.63;2.78;;;24.00;99.90;;;;;;5092872;28;20040;-70
2022/08/25 07:59:55;;;;;;;4.55;2.80;;;24.10;99.90;;;;;;5093287;28;20138;-69
2022/08/25 08:02:21;;;;;;;3.95;2.63;;;24.20;99.90;;;;;;5094494;28;20097;-70
2022/08/25 08:04:48;;;;;;;6.40;2.65;;;24.30;99.90;;;;;;5094416;28;20047;-71
2022/08/25 08:07:19;;;;;;;4.13;2.20;;;;;;;;;;5094265;28;20040;-70
2022/08/25 08:09:45;;;;;;;;;;;;;;;;;;5094599;28;20127;-70
2022/08/25 08:12:11;;;;;;;3.45;2.20;;;;;;;;;;5094069;28;20362;-71
2022/08/25 08:14:37;;;;;;;3.40;2.45;;;;;;;;;;5094179;28;20052;-69
2022/08/25 08:17:07;;;;;;;3.67;2.55;;;;;;;;;;5094198;28;20093;-68
2022/08/25 08:19:33;;;;;;;;;;;;;;;;;;5094580;28;20048;-69
2022/08/25 08:22:00;;;;;;;4.03;2.58;;;;;;;;;;5094166;28;19915;-70
2022/08/25 08:24:28;;;;;;;3.20;1.92;;;;;;;;;;5093998;28;20063;-69
2022/08/25 08:26:54;;;;;;;3.08;2.10;;;;;;;;;;5093618;28;20044;-70
2022/08/25 08:29:21;;;;;;;5.60;2.25;;;;;;;;;;5093924;28;20050;-69
2022/08/25 08:31:47;;;;;;;7.15;2.60;;;;;;;;;;5093966;28;20048;-71
2022/08/25 08:34:14;;;;;;;3.42;2.30;;;;;;;;;;5093507;28;20052;-69
2022/08/25 08:36:40;;;;;;;3.65;2.25;;;;;;;;;;5093982;28;20481;-70
2022/08/25 08:39:07;;;;;;;4.88;2.35;;;;;;;;;;5093865;28;20384;-70
2022/08/25 08:44:23;;;;;;;3.75;2.50;;;25.80;99.90;;;;;;5092229;28;20096;-70
2022/08/25 08:46:57;;;;;;;8.18;2.38;;;25.90;99.90;;;;;;5093488;28;20123;-70
2022/08/25 08:49:44;;;;;;;4.78;2.22;;;26.00;99.90;;;;;;5092501;28;20509;-71
2022/08/25 08:52:14;;;;;;;5.05;2.50;;;26.10;99.90;;;;;;5092189;28;20165;-69
2022/08/25 08:54:43;;;;;;;3.78;2.40;;;26.20;99.90;;;;;;5093638;28;20044;-69
2022/08/25 08:57:15;;;;;;;2.75;1.98;;;26.30;99.90;;;;;;5093637;28;20044;-69
2022/08/25 09:00:00;;;;;;;3.50;2.55;;;26.40;99.90;;;;;;5093610;28;20032;-70
2022/08/25 09:02:29;;;;;;;3.45;1.70;;;;;;;;;;5093159;28;20070;-69
2022/08/25 09:04:59;;;;;;;2.90;1.92;;;;;;;;;;5093242;28;20154;-70
2022/08/25 09:07:36;;;;;;;3.55;1.80;;;;;;;;;;5092244;28;20391;-70
2022/08/25 09:10:03;;;;;;;3.53;2.20;;;;;;;;;;5093424;28;20040;-69
2022/08/25 09:12:53;;;;;;;3.85;2.15;;;;;;;;;;5093092;28;20056;-69
2022/08/25 09:18:34;;;;;;;;;;;26.80;75.00;;;;;;5093387;28;20105;-69
2022/08/25 09:21:32;;;;;;;2.75;1.65;;;26.90;79.60;;;;;;5091375;28;19965;-69
2022/08/25 09:24:20;;;;;;;10.30;2.35;;;;;;;;;;5038026;28;20071;-69
2022/08/25 09:27:04;;;;;;;3.15;1.63;;;;;;;;;;5092036;28;20337;-69
2022/08/25 09:29:52;;;;;;;4.22;1.60;;;27.10;99.90;;;;;;5093207;28;20044;-70
2022/08/25 09:32:18;;;;;;;2.15;1.60;;;27.30;1.00;;;;;;5092839;28;20085;-68
2022/08/25 09:34:46;;;;;;;2.47;1.52;;;27.30;99.90;;;;;;5093120;28;20044;-69
2022/08/25 09:37:12;;;;;;;4.35;1.50;;;27.20;45.00;;;;;;5093113;28;20415;-69
2022/08/25 09:39:38;;;;;;;2.92;1.75;;;27.30;47.40;;;;;;5093108;28;20040;-69
2022/08/25 09:42:03;;;;;;;3.67;1.60;;;27.30;42.10;;;;;;5093002;28;20093;-69
2022/08/25 09:44:40;;;;;;;2.20;1.52;;;27.40;92.20;;;;;;5091823;28;20391;-69
2022/08/25 09:47:19;;;;;;;2.10;1.30;;;27.50;99.90;;;;;;5093027;28;20036;-70
2022/08/25 09:49:50;;;;;;;3.30;1.63;;;;;;;;;;5091526;28;20052;-70
2022/08/25 09:52:30;;;;;;;2.72;1.88;;;;;;;;;;5092790;28;20169;-69
2022/08/25 09:54:58;;;;;;;2.03;1.50;;;;;;;;;;5091501;28;20048;-70
2022/08/25 09:57:50;;;;;;;2.13;1.60;;;;;;;;;;5092970;28;20064;-70
2022/08/25 10:00:24;;;;;;;2.75;1.73;;;;;;;;;;5090239;28;20123;-70
2022/08/25 10:03:09;;;;;;;5.38;1.73;;;;;;;;;;5091376;28;20059;-70
2022/08/25 10:05:38;;;;;;;2.58;1.50;;;;;;;;;;5092669;28;20051;-70
2022/08/25 10:08:12;;;;;;;2.85;1.73;;;;;;;;;;5092860;28;20127;-70
2022/08/25 10:10:42;;;;;;;1.85;1.48;;;;;;;;;;5091394;28;20080;-70
2022/08/25 10:13:14;;;;;;;3.58;1.60;;;29.00;1.00;;;;;;5092497;28;20089;-70
2022/08/25 10:15:40;;;;;;;3.25;1.80;;;28.50;45.80;;;;;;5092417;28;20048;-70
2022/08/25 10:18:20;;;;;;;2.65;1.63;;;28.50;2.50;;;;;;5092415;28;20028;-70
2022/08/25 10:20:59;;;;;;;2.67;1.77;;;28.60;1.00;;;;;;5092473;28;20437;-69
2022/08/25 10:23:26;;;;;;;2.72;1.77;;;28.60;9.60;;;;;;5092441;28;20097;-70
2022/08/25 10:25:53;;;;;;;2.83;1.80;;;;;;;;;;5092758;28;20046;-70
2022/08/25 10:28:29;;;;;;;1.50;1.30;;;;;;;;;;5092530;28;20040;-69
2022/08/25 10:31:11;;;;;;;2.95;1.73;;;;;;;;;;5092804;28;20032;-69
2022/08/25 10:33:50;;;;;;;2.28;1.55;;;;;;;;;;5094146;28;20036;-70
2022/08/25 10:36:19;;;;;;;2.63;1.55;;;;;;;;;;5095897;28;20565;-69
2022/08/25 10:38:48;;;;;;;4.38;1.70;;;;;;;;;;5095806;28;20448;-69
2022/08/25 10:41:26;;;;;;;2.00;1.55;;;;;;;;;;5094567;28;20048;-69
2022/08/25 10:44:05;;;;;;;2.15;1.48;;;;;;;;;;5095963;28;20058;-69
2022/08/25 10:46:42;;;;;;;3.97;1.60;;;29.10;99.90;;;;;;5095594;28;20123;-69
2022/08/25 10:49:28;;;;;;;3.17;1.73;;;29.10;99.90;;;;;;5095609;28;20115;-69
2022/08/25 10:52:01;;;;;;;2.30;1.25;;;;;;;;;;5095889;28;20071;-71
2022/08/25 10:54:29;;;;;;;2.75;2.05;;;29.10;99.90;;;;;;5095667;28;20076;-69
2022/08/25 10:57:08;;;;;;;2.90;1.52;;;29.00;99.90;;;;;;5095735;28;20047;-70
2022/08/25 10:59:45;;;;;;;3.63;1.90;;;29.00;99.90;;;;;;5094215;28;20076;-69
2022/08/25 11:02:38;;;;;;;2.28;1.58;;;29.00;99.90;;;;;;5095332;28;20043;-70
2022/08/25 11:05:22;;;;;;;1.92;1.40;;;28.90;99.90;;;;;;5095627;28;20100;-70
2022/08/25 11:07:52;;;;;;;3.92;1.75;;;28.90;99.90;;;;;;5077142;28;20371;-70
2022/08/25 11:10:25;;;;;;;2.22;1.70;;;29.00;99.90;;;;;;5094257;28;20048;-70
2022/08/25 11:12:56;;;;;;;3.20;1.58;;;29.00;99.90;;;;;;5095251;28;20056;-69
2022/08/25 11:15:34;;;;;;;3.17;1.40;;;29.00;99.90;;;;;;5095045;28;20043;-70
2022/08/25 11:18:13;;;;;;;4.80;1.95;;;29.00;99.90;;;;;;5095109;28;20036;-70
2022/08/25 11:20:54;;;;;;;3.43;1.77;;;29.10;99.90;;;;;;5095527;28;20568;-69
2022/08/25 11:23:31;;;;;;;3.47;1.70;;;29.00;99.90;;;;;;5095371;28;20040;-69
2022/08/25 11:26:07;;;;;;;2.20;1.70;;;29.00;99.90;;;;;;5095388;28;20505;-69
2022/08/25 11:29:09;;;;;;;4.25;1.63;;;29.00;99.90;;;;;;5095310;28;20036;-69
2022/08/25 11:31:42;;;;;;;2.33;1.50;;;29.10;99.90;;;;;;5093740;28;20071;-70
2022/08/25 11:34:15;;;;;;;2.65;1.70;;;29.20;99.90;;;;;;5095065;28;20145;-70
2022/08/25 11:36:47;;;;;;;4.13;1.33;;;29.00;99.90;;;;;;5095102;28;20032;-70
2022/08/25 11:39:38;;;;;;;2.80;1.83;;;29.00;99.90;;;;;;5095000;28;20051;-70
2022/08/25 11:42:15;;;;;;;2.10;1.58;;;;;;;;;;5095031;28;20040;-69
2022/08/25 11:44:41;;;;;;;2.88;1.65;;;;;;;;;;5094251;28;20051;-69
2022/08/25 11:47:10;;;;;;;3.92;1.80;;;;;;;;;;5094560;28;20090;-70
2022/08/25 11:49:39;;;;;;;3.13;1.77;;;;;;;;;;5094965;28;20040;-69
2022/08/25 11:52:08;;;;;;;2.13;1.60;;;;;;;;;;5094809;28;20475;-69
2022/08/25 11:54:38;;;;;;;2.50;1.60;;;;;;;;;;5094660;28;20048;-69
2022/08/25 11:57:16;;;;;;;2.47;1.52;;;;;;;;;;5094765;28;20134;-70
2022/08/25 11:59:51;;;;;;;2.35;1.52;;;;;;;;;;5094728;28;20040;-70
2022/08/25 12:02:29;;;;;;;1.85;1.40;;;;;;;;;;5094178;28;20044;-70
2022/08/25 12:04:56;;;;;;;1.52;1.42;;;;;;;;;;5094610;28;20040;-70
2022/08/25 12:07:24;;;;;;;5.03;1.98;;;;;;;;;;5094341;28;20090;-70
2022/08/25 12:09:50;;;;;;;2.15;1.33;;;;;;;;;;5094194;28;20130;-71
2022/08/25 12:12:22;;;;;;;3.15;1.58;;;;;;;;;;5092687;28;20111;-71
2022/08/25 12:14:48;;;;;;;1.88;1.50;;;;;;;;;;5093962;28;20170;-70
2022/08/25 12:17:23;;;;;;;2.03;1.58;;;29.70;99.90;;;;;;5094298;28;20072;-71
2022/08/25 12:19:55;;;;;;;2.72;1.45;;;29.90;68.50;;;;;;5094278;28;20044;-71
2022/08/25 12:22:21;;;;;;;2.20;1.67;;;30.00;99.90;;;;;;5092621;28;20043;-71
2022/08/25 12:24:56;;;;;;;3.38;1.80;;;29.90;99.90;;;;;;5092688;28;20121;-71
2022/08/25 12:27:37;;;;;;;1.83;1.40;;;30.00;99.90;;;;;;5094090;28;20040;-71
2022/08/25 12:30:05;;;;;;;2.22;1.50;;;30.10;99.90;;;;;;5092882;28;20048;-69
2022/08/25 12:32:49;;;;;;;2.45;1.67;;;30.00;22.90;;;;;;5093999;28;20047;-71
2022/08/25 12:35:31;;;;;;;1.77;1.48;;;30.00;20.20;;;;;;5093597;28;20140;-69
2022/08/25 12:38:04;;;;;;;2.47;1.73;;;29.90;12.50;;;;;;5093965;28;20395;-69
2022/08/25 12:40:41;;;;;;;2.03;1.60;;;30.10;6.30;;;;;;5093732;28;20514;-70
2022/08/25 12:43:32;;;;;;;2.80;1.60;;;29.90;1.00;;;;;;5093517;28;20036;-70
2022/08/25 12:46:24;;;;;;;2.42;1.38;;;30.00;1.00;;;;;;5093810;28;20443;-70
2022/08/25 12:48:57;;;;;;;2.90;1.60;;;30.10;1.00;;;;;;5092474;28;20047;-70
2022/08/25 12:51:27;;;;;;;2.67;1.77;;;29.90;1.00;;;;;;5092222;28;20059;-70
2022/08/25 12:54:18;;;;;;;2.20;1.77;;;29.90;1.00;;;;;;5093341;28;20044;-69
2022/08/25 12:56:51;;;;;;;2.65;1.65;;;29.90;1.00;;;;;;5063906;28;20047;-71
2022/08/25 12:59:40;;;;;;;1.80;1.60;;;29.90;1.00;;;;;;5093285;28;20036;-70
2022/08/25 13:02:06;;;;;;;2.55;1.67;;;29.90;1.00;;;;;;5092064;28;20044;-70
2022/08/25 13:05:05;;;;;;;2.90;1.83;;;29.90;1.00;;;;;;5093611;28;20450;-70
2022/08/25 13:08:13;;;;;;;1.55;1.40;;;29.80;1.00;;;;;;5093136;28;20083;-69
2022/08/25 13:10:49;;;;;;;1.92;1.65;;;29.90;1.00;;;;;;5091846;28;20051;-68
2022/08/25 13:13:44;;;;;;;2.65;1.60;;;29.90;1.00;;;;;;5093151;28;20414;-70
2022/08/25 13:16:27;;;;;;;3.42;1.80;;;29.90;1.00;;;;;;5074909;28;20063;-68
2022/08/25 13:18:57;;;;;;;3.33;1.98;;;29.90;1.00;;;;;;5093278;28;20048;-68
2022/08/25 13:21:32;;;;;;;8.93;2.20;;;30.10;1.00;;;;;;5091773;28;20048;-69
2022/08/25 13:24:00;;;;;;;2.47;1.85;;;30.20;1.00;;;;;;5093192;28;20040;-71
2022/08/25 13:26:29;;;;;;;4.20;1.80;;;30.30;1.00;;;;;;5093144;28;20032;-72
2022/08/25 13:29:07;;;;;;;5.97;2.13;;;30.30;1.00;;;;;;5093161;28;20040;-71
2022/08/25 13:31:37;;;;;;;1.63;1.40;;;30.40;1.00;;;;;;5092887;28;20506;-71
2022/08/25 13:34:07;;;;;;;3.70;1.58;;;30.40;1.00;;;;;;5093086;28;20434;-69
2022/08/25 13:39:32;;;;;;;2.05;1.52;;;30.20;1.00;;;;;;5093077;28;20044;-72